sensor_id;sensor_type;location;lat;lon;timestamp;P1;durP1;ratioP1;P2;durP2;ratioP2
54269;SDS011;40181;51.560;13.000;2023-06-10T00:00:25;2.10;;;1.50;;
54269;SDS011;40181;51.560;13.000;2023-06-10T00:02:59;3.65;;;1.83;;
54269;SDS011;40181;51.560;13.000;2023-06-10T00:05:28;2.90;;;1.45;;
54269;SDS011;40181;51.560;13.000;2023-06-10T00:07:57;1.90;;;1.08;;
54269;SDS011;40181;51.560;13.000;2023-06-10T00:10:32;4.28;;;2.15;;
54269;SDS011;40181;51.560;13.000;2023-06-10T00:13:01;4.25;;;1.75;;
54269;SDS011;40181;51.560;13.000;2023-06-10T00:15:32;4.00;;;2.13;;
54269;SDS011;40181;51.560;13.000;2023-06-10T00:18:05;6.07;;;1.90;;
54269;SDS011;40181;51.560;13.000;2023-06-10T00:20:35;3.80;;;1.70;;
54269;SDS011;40181;51.560;13.000;2023-06-10T00:23:05;2.47;;;1.40;;
54269;SDS011;40181;51.560;13.000;2023-06-10T00:25:34;5.57;;;1.67;;
54269;SDS011;40181;51.560;13.000;2023-06-10T00:28:04;3.53;;;1.58;;
54269;SDS011;40181;51.560;13.000;2023-06-10T00:30:33;2.67;;;1.38;;
54269;SDS011;40181;51.560;13.000;2023-06-10T00:33:02;2.20;;;1.33;;
54269;SDS011;40181;51.560;13.000;2023-06-10T00:35:33;2.13;;;1.60;;
54269;SDS011;40181;51.560;13.000;2023-06-10T00:38:02;2.90;;;1.88;;
54269;SDS011;40181;51.560;13.000;2023-06-10T00:40:33;1.83;;;1.48;;
54269;SDS011;40181;51.560;13.000;2023-06-10T00:43:07;3.65;;;1.60;;
54269;SDS011;40181;51.560;13.000;2023-06-10T00:45:37;3.72;;;2.00;;
54269;SDS011;40181;51.560;13.000;2023-06-10T00:48:08;4.38;;;1.83;;
54269;SDS011;40181;51.560;13.000;2023-06-10T00:50:38;4.82;;;2.08;;
54269;SDS011;40181;51.560;13.000;2023-06-10T00:53:07;2.03;;;1.58;;
54269;SDS011;40181;51.560;13.000;2023-06-10T00:55:37;2.83;;;1.80;;
54269;SDS011;40181;51.560;13.000;2023-06-10T00:58:06;3.38;;;2.13;;
54269;SDS011;40181;51.560;13.000;2023-06-10T01:00:35;4.60;;;1.90;;
54269;SDS011;40181;51.560;13.000;2023-06-10T01:03:07;5.05;;;1.95;;
54269;SDS011;40181;51.560;13.000;2023-06-10T01:05:36;3.17;;;1.75;;
54269;SDS011;40181;51.560;13.000;2023-06-10T01:08:09;6.40;;;2.13;;
54269;SDS011;40181;51.560;13.000;2023-06-10T01:10:47;4.30;;;2.08;;
54269;SDS011;40181;51.560;13.000;2023-06-10T01:13:22;4.97;;;2.00;;
54269;SDS011;40181;51.560;13.000;2023-06-10T01:15:56;3.33;;;1.90;;
54269;SDS011;40181;51.560;13.000;2023-06-10T01:18:32;3.73;;;1.93;;
54269;SDS011;40181;51.560;13.000;2023-06-10T01:21:01;2.45;;;1.48;;
54269;SDS011;40181;51.560;13.000;2023-06-10T01:23:32;2.90;;;1.52;;
54269;SDS011;40181;51.560;13.000;2023-06-10T01:26:02;2.85;;;1.83;;
54269;SDS011;40181;51.560;13.000;2023-06-10T01:28:38;3.13;;;1.95;;
54269;SDS011;40181;51.560;13.000;2023-06-10T01:31:15;5.30;;;1.95;;
54269;SDS011;40181;51.560;13.000;2023-06-10T01:33:52;2.75;;;2.03;;
54269;SDS011;40181;51.560;13.000;2023-06-10T01:38:54;2.13;;;1.50;;
54269;SDS011;40181;51.560;13.000;2023-06-10T01:41:24;2.70;;;1.88;;
54269;SDS011;40181;51.560;13.000;2023-06-10T01:43:54;2.63;;;1.80;;
54269;SDS011;40181;51.560;13.000;2023-06-10T01:46:23;2.83;;;1.38;;
54269;SDS011;40181;51.560;13.000;2023-06-10T01:48:54;2.50;;;1.88;;
54269;SDS011;40181;51.560;13.000;2023-06-10T01:51:23;2.22;;;1.45;;
54269;SDS011;40181;51.560;13.000;2023-06-10T01:54:00;2.90;;;1.92;;
54269;SDS011;40181;51.560;13.000;2023-06-10T01:56:29;3.95;;;1.88;;
54269;SDS011;40181;51.560;13.000;2023-06-10T01:58:58;4.97;;;2.75;;
54269;SDS011;40181;51.560;13.000;2023-06-10T02:01:28;2.83;;;1.60;;
54269;SDS011;40181;51.560;13.000;2023-06-10T02:03:57;4.20;;;2.03;;
54269;SDS011;40181;51.560;13.000;2023-06-10T02:06:26;2.75;;;1.75;;
54269;SDS011;40181;51.560;13.000;2023-06-10T02:08:55;2.30;;;1.55;;
54269;SDS011;40181;51.560;13.000;2023-06-10T02:11:27;2.60;;;1.83;;
54269;SDS011;40181;51.560;13.000;2023-06-10T02:13:56;3.38;;;1.83;;
54269;SDS011;40181;51.560;13.000;2023-06-10T02:16:25;2.53;;;1.90;;
54269;SDS011;40181;51.560;13.000;2023-06-10T02:18:54;3.42;;;2.30;;
54269;SDS011;40181;51.560;13.000;2023-06-10T02:21:23;3.53;;;2.08;;
54269;SDS011;40181;51.560;13.000;2023-06-10T02:23:52;5.22;;;2.50;;
54269;SDS011;40181;51.560;13.000;2023-06-10T02:26:24;2.78;;;1.88;;
54269;SDS011;40181;51.560;13.000;2023-06-10T02:28:53;3.40;;;2.40;;
54269;SDS011;40181;51.560;13.000;2023-06-10T02:31:22;3.50;;;2.20;;
54269;SDS011;40181;51.560;13.000;2023-06-10T02:33:53;4.70;;;2.30;;
54269;SDS011;40181;51.560;13.000;2023-06-10T02:36:23;4.38;;;2.22;;
54269;SDS011;40181;51.560;13.000;2023-06-10T02:38:53;3.85;;;2.10;;
54269;SDS011;40181;51.560;13.000;2023-06-10T02:41:24;3.88;;;2.30;;
54269;SDS011;40181;51.560;13.000;2023-06-10T02:43:53;3.17;;;1.95;;
54269;SDS011;40181;51.560;13.000;2023-06-10T02:46:22;7.93;;;2.33;;
54269;SDS011;40181;51.560;13.000;2023-06-10T02:51:22;3.33;;;1.45;;
54269;SDS011;40181;51.560;13.000;2023-06-10T02:53:52;3.80;;;2.22;;
54269;SDS011;40181;51.560;13.000;2023-06-10T02:56:21;2.55;;;1.60;;
54269;SDS011;40181;51.560;13.000;2023-06-10T02:58:53;4.43;;;2.50;;
54269;SDS011;40181;51.560;13.000;2023-06-10T03:01:22;3.50;;;2.22;;
54269;SDS011;40181;51.560;13.000;2023-06-10T03:03:51;5.15;;;2.63;;
54269;SDS011;40181;51.560;13.000;2023-06-10T03:06:21;3.42;;;2.13;;
54269;SDS011;40181;51.560;13.000;2023-06-10T03:08:52;4.18;;;2.17;;
54269;SDS011;40181;51.560;13.000;2023-06-10T03:11:21;4.13;;;2.53;;
54269;SDS011;40181;51.560;13.000;2023-06-10T03:13:53;3.30;;;1.98;;
54269;SDS011;40181;51.560;13.000;2023-06-10T03:16:22;3.88;;;2.53;;
54269;SDS011;40181;51.560;13.000;2023-06-10T03:18:52;2.90;;;1.80;;
54269;SDS011;40181;51.560;13.000;2023-06-10T03:21:21;4.70;;;2.50;;
54269;SDS011;40181;51.560;13.000;2023-06-10T03:23:50;3.78;;;2.15;;
54269;SDS011;40181;51.560;13.000;2023-06-10T03:26:20;2.88;;;1.75;;
54269;SDS011;40181;51.560;13.000;2023-06-10T03:28:51;3.35;;;2.42;;
54269;SDS011;40181;51.560;13.000;2023-06-10T03:31:20;2.97;;;2.22;;
54269;SDS011;40181;51.560;13.000;2023-06-10T03:33:49;2.88;;;1.98;;
54269;SDS011;40181;51.560;13.000;2023-06-10T03:36:18;3.67;;;2.70;;
54269;SDS011;40181;51.560;13.000;2023-06-10T03:38:47;1.42;;;1.30;;
54269;SDS011;40181;51.560;13.000;2023-06-10T03:41:17;4.07;;;2.70;;
54269;SDS011;40181;51.560;13.000;2023-06-10T03:43:46;7.50;;;2.40;;
54269;SDS011;40181;51.560;13.000;2023-06-10T03:46:18;7.45;;;2.45;;
54269;SDS011;40181;51.560;13.000;2023-06-10T03:48:47;3.60;;;2.40;;
54269;SDS011;40181;51.560;13.000;2023-06-10T03:51:16;5.03;;;2.22;;
54269;SDS011;40181;51.560;13.000;2023-06-10T03:53:45;3.83;;;2.25;;
54269;SDS011;40181;51.560;13.000;2023-06-10T03:56:14;4.30;;;2.08;;
54269;SDS011;40181;51.560;13.000;2023-06-10T03:58:43;3.78;;;2.35;;
54269;SDS011;40181;51.560;13.000;2023-06-10T04:01:12;3.90;;;2.08;;
54269;SDS011;40181;51.560;13.000;2023-06-10T04:06:16;3.97;;;1.77;;
54269;SDS011;40181;51.560;13.000;2023-06-10T04:08:47;3.20;;;1.80;;
54269;SDS011;40181;51.560;13.000;2023-06-10T04:11:16;4.28;;;2.03;;
54269;SDS011;40181;51.560;13.000;2023-06-10T04:13:45;6.25;;;2.97;;
54269;SDS011;40181;51.560;13.000;2023-06-10T04:16:14;3.53;;;2.00;;
54269;SDS011;40181;51.560;13.000;2023-06-10T04:18:46;4.43;;;2.47;;
54269;SDS011;40181;51.560;13.000;2023-06-10T04:21:15;2.45;;;1.95;;
54269;SDS011;40181;51.560;13.000;2023-06-10T04:23:44;2.28;;;2.03;;
54269;SDS011;40181;51.560;13.000;2023-06-10T04:26:13;2.80;;;1.55;;
54269;SDS011;40181;51.560;13.000;2023-06-10T04:28:42;9.02;;;3.22;;
54269;SDS011;40181;51.560;13.000;2023-06-10T04:31:12;3.17;;;2.10;;
54269;SDS011;40181;51.560;13.000;2023-06-10T04:33:41;3.15;;;1.85;;
54269;SDS011;40181;51.560;13.000;2023-06-10T04:36:12;3.97;;;2.50;;
54269;SDS011;40181;51.560;13.000;2023-06-10T04:38:42;5.15;;;2.67;;
54269;SDS011;40181;51.560;13.000;2023-06-10T04:41:11;3.33;;;1.65;;
54269;SDS011;40181;51.560;13.000;2023-06-10T04:43:40;7.68;;;2.83;;
54269;SDS011;40181;51.560;13.000;2023-06-10T04:46:09;2.88;;;2.10;;
54269;SDS011;40181;51.560;13.000;2023-06-10T04:48:38;3.25;;;2.35;;
54269;SDS011;40181;51.560;13.000;2023-06-10T04:51:07;8.98;;;2.25;;
54269;SDS011;40181;51.560;13.000;2023-06-10T04:53:39;4.32;;;3.08;;
54269;SDS011;40181;51.560;13.000;2023-06-10T04:56:09;3.75;;;1.90;;
54269;SDS011;40181;51.560;13.000;2023-06-10T04:58:38;3.53;;;2.45;;
54269;SDS011;40181;51.560;13.000;2023-06-10T05:01:07;4.93;;;2.40;;
54269;SDS011;40181;51.560;13.000;2023-06-10T05:03:36;4.03;;;2.30;;
54269;SDS011;40181;51.560;13.000;2023-06-10T05:06:05;7.13;;;3.03;;
54269;SDS011;40181;51.560;13.000;2023-06-10T05:08:35;4.75;;;3.13;;
54269;SDS011;40181;51.560;13.000;2023-06-10T05:11:07;4.35;;;2.95;;
54269;SDS011;40181;51.560;13.000;2023-06-10T05:13:36;6.43;;;3.08;;
54269;SDS011;40181;51.560;13.000;2023-06-10T05:16:05;5.50;;;3.55;;
54269;SDS011;40181;51.560;13.000;2023-06-10T05:18:34;4.55;;;2.85;;
54269;SDS011;40181;51.560;13.000;2023-06-10T05:21:03;3.03;;;2.40;;
54269;SDS011;40181;51.560;13.000;2023-06-10T05:23:32;3.35;;;2.53;;
54269;SDS011;40181;51.560;13.000;2023-06-10T05:26:04;3.88;;;2.50;;
54269;SDS011;40181;51.560;13.000;2023-06-10T05:28:34;2.80;;;1.83;;
54269;SDS011;40181;51.560;13.000;2023-06-10T05:31:03;8.68;;;3.20;;
54269;SDS011;40181;51.560;13.000;2023-06-10T05:33:32;5.57;;;2.63;;
54269;SDS011;40181;51.560;13.000;2023-06-10T05:36:02;5.40;;;2.65;;
54269;SDS011;40181;51.560;13.000;2023-06-10T05:38:31;12.40;;;2.95;;
54269;SDS011;40181;51.560;13.000;2023-06-10T05:41:00;3.38;;;2.60;;
54269;SDS011;40181;51.560;13.000;2023-06-10T05:43:32;7.10;;;2.75;;
54269;SDS011;40181;51.560;13.000;2023-06-10T05:46:01;4.65;;;3.22;;
54269;SDS011;40181;51.560;13.000;2023-06-10T05:48:30;3.97;;;3.05;;
54269;SDS011;40181;51.560;13.000;2023-06-10T05:50:59;6.07;;;2.72;;
54269;SDS011;40181;51.560;13.000;2023-06-10T05:53:28;7.20;;;3.58;;
54269;SDS011;40181;51.560;13.000;2023-06-10T05:55:57;4.43;;;2.72;;
54269;SDS011;40181;51.560;13.000;2023-06-10T05:58:29;4.72;;;3.47;;
54269;SDS011;40181;51.560;13.000;2023-06-10T06:00:58;6.18;;;2.88;;
54269;SDS011;40181;51.560;13.000;2023-06-10T06:03:27;4.50;;;2.88;;
54269;SDS011;40181;51.560;13.000;2023-06-10T06:05:56;3.25;;;2.53;;
54269;SDS011;40181;51.560;13.000;2023-06-10T06:08:25;4.63;;;3.45;;
54269;SDS011;40181;51.560;13.000;2023-06-10T06:10:54;4.28;;;2.88;;
54269;SDS011;40181;51.560;13.000;2023-06-10T06:13:26;5.10;;;3.35;;
54269;SDS011;40181;51.560;13.000;2023-06-10T06:15:57;12.05;;;3.13;;
54269;SDS011;40181;51.560;13.000;2023-06-10T06:18:26;9.65;;;3.28;;
54269;SDS011;40181;51.560;13.000;2023-06-10T06:20:55;11.57;;;3.40;;
54269;SDS011;40181;51.560;13.000;2023-06-10T06:23:24;4.70;;;2.97;;
54269;SDS011;40181;51.560;13.000;2023-06-10T06:25:53;4.82;;;3.38;;
54269;SDS011;40181;51.560;13.000;2023-06-10T06:28:22;7.53;;;2.97;;
54269;SDS011;40181;51.560;13.000;2023-06-10T06:30:56;8.85;;;3.53;;
54269;SDS011;40181;51.560;13.000;2023-06-10T06:33:25;6.60;;;3.08;;
54269;SDS011;40181;51.560;13.000;2023-06-10T06:35:55;8.77;;;3.08;;
54269;SDS011;40181;51.560;13.000;2023-06-10T06:38:25;9.38;;;3.78;;
54269;SDS011;40181;51.560;13.000;2023-06-10T06:40:54;12.40;;;3.90;;
54269;SDS011;40181;51.560;13.000;2023-06-10T06:43:27;5.95;;;3.35;;
54269;SDS011;40181;51.560;13.000;2023-06-10T06:45:59;4.30;;;3.33;;
54269;SDS011;40181;51.560;13.000;2023-06-10T06:48:28;5.05;;;3.60;;
54269;SDS011;40181;51.560;13.000;2023-06-10T06:50:57;6.75;;;3.85;;
54269;SDS011;40181;51.560;13.000;2023-06-10T06:53:27;5.15;;;3.35;;
54269;SDS011;40181;51.560;13.000;2023-06-10T06:55:56;6.80;;;3.70;;
54269;SDS011;40181;51.560;13.000;2023-06-10T06:58:25;9.35;;;3.45;;
54269;SDS011;40181;51.560;13.000;2023-06-10T07:00:54;5.10;;;3.35;;
54269;SDS011;40181;51.560;13.000;2023-06-10T07:03:25;8.38;;;3.92;;
54269;SDS011;40181;51.560;13.000;2023-06-10T07:05:55;6.97;;;3.67;;
54269;SDS011;40181;51.560;13.000;2023-06-10T07:08:24;6.22;;;4.07;;
54269;SDS011;40181;51.560;13.000;2023-06-10T07:10:53;4.35;;;3.25;;
54269;SDS011;40181;51.560;13.000;2023-06-10T07:13:22;4.30;;;3.35;;
54269;SDS011;40181;51.560;13.000;2023-06-10T07:15:51;6.75;;;4.57;;
54269;SDS011;40181;51.560;13.000;2023-06-10T07:18:20;5.72;;;3.75;;
54269;SDS011;40181;51.560;13.000;2023-06-10T07:20:51;5.90;;;4.00;;
54269;SDS011;40181;51.560;13.000;2023-06-10T07:23:20;6.13;;;3.80;;
54269;SDS011;40181;51.560;13.000;2023-06-10T07:25:49;13.73;;;6.75;;
54269;SDS011;40181;51.560;13.000;2023-06-10T07:28:18;8.05;;;5.03;;
54269;SDS011;40181;51.560;13.000;2023-06-10T07:30:47;5.03;;;4.20;;
54269;SDS011;40181;51.560;13.000;2023-06-10T07:33:17;4.45;;;3.75;;
54269;SDS011;40181;51.560;13.000;2023-06-10T07:35:46;6.85;;;3.63;;
54269;SDS011;40181;51.560;13.000;2023-06-10T07:38:17;15.88;;;5.90;;
54269;SDS011;40181;51.560;13.000;2023-06-10T07:40:46;4.78;;;4.03;;
54269;SDS011;40181;51.560;13.000;2023-06-10T07:43:15;6.72;;;4.43;;
54269;SDS011;40181;51.560;13.000;2023-06-10T07:45:45;5.05;;;3.65;;
54269;SDS011;40181;51.560;13.000;2023-06-10T07:48:14;6.75;;;3.45;;
54269;SDS011;40181;51.560;13.000;2023-06-10T07:50:43;6.40;;;3.97;;
54269;SDS011;40181;51.560;13.000;2023-06-10T07:53:12;4.90;;;3.45;;
54269;SDS011;40181;51.560;13.000;2023-06-10T07:55:43;4.90;;;3.47;;
54269;SDS011;40181;51.560;13.000;2023-06-10T07:58:12;4.63;;;3.22;;
54269;SDS011;40181;51.560;13.000;2023-06-10T08:00:41;5.30;;;3.78;;
54269;SDS011;40181;51.560;13.000;2023-06-10T08:03:10;9.43;;;5.03;;
54269;SDS011;40181;51.560;13.000;2023-06-10T08:05:40;5.28;;;3.83;;
54269;SDS011;40181;51.560;13.000;2023-06-10T08:08:09;10.70;;;4.50;;
54269;SDS011;40181;51.560;13.000;2023-06-10T08:10:38;4.82;;;3.75;;
54269;SDS011;40181;51.560;13.000;2023-06-10T08:13:09;6.63;;;3.95;;
54269;SDS011;40181;51.560;13.000;2023-06-10T08:15:39;14.35;;;5.07;;
54269;SDS011;40181;51.560;13.000;2023-06-10T08:18:08;6.18;;;4.00;;
54269;SDS011;40181;51.560;13.000;2023-06-10T08:20:37;6.22;;;4.43;;
54269;SDS011;40181;51.560;13.000;2023-06-10T08:23:06;7.07;;;4.45;;
54269;SDS011;40181;51.560;13.000;2023-06-10T08:25:35;13.63;;;7.28;;
54269;SDS011;40181;51.560;13.000;2023-06-10T08:28:04;15.95;;;7.72;;
54269;SDS011;40181;51.560;13.000;2023-06-10T08:30:35;16.23;;;7.22;;
54269;SDS011;40181;51.560;13.000;2023-06-10T08:33:04;6.78;;;4.28;;
54269;SDS011;40181;51.560;13.000;2023-06-10T08:35:33;4.95;;;4.00;;
54269;SDS011;40181;51.560;13.000;2023-06-10T08:38:02;5.28;;;3.35;;
54269;SDS011;40181;51.560;13.000;2023-06-10T08:40:32;5.38;;;3.75;;
54269;SDS011;40181;51.560;13.000;2023-06-10T08:43:05;6.10;;;3.90;;
54269;SDS011;40181;51.560;13.000;2023-06-10T08:45:44;9.90;;;5.47;;
54269;SDS011;40181;51.560;13.000;2023-06-10T08:48:17;5.50;;;3.75;;
54269;SDS011;40181;51.560;13.000;2023-06-10T08:50:48;6.25;;;3.40;;
54269;SDS011;40181;51.560;13.000;2023-06-10T08:53:20;5.40;;;3.67;;
54269;SDS011;40181;51.560;13.000;2023-06-10T08:55:50;4.82;;;3.25;;
54269;SDS011;40181;51.560;13.000;2023-06-10T08:58:20;7.32;;;4.07;;
54269;SDS011;40181;51.560;13.000;2023-06-10T09:00:52;5.15;;;2.75;;
54269;SDS011;40181;51.560;13.000;2023-06-10T09:03:21;4.28;;;3.20;;
54269;SDS011;40181;51.560;13.000;2023-06-10T09:05:52;5.53;;;4.03;;
54269;SDS011;40181;51.560;13.000;2023-06-10T09:08:22;5.28;;;3.92;;
54269;SDS011;40181;51.560;13.000;2023-06-10T09:10:51;6.50;;;4.28;;
54269;SDS011;40181;51.560;13.000;2023-06-10T09:13:23;5.85;;;3.83;;
54269;SDS011;40181;51.560;13.000;2023-06-10T09:15:54;12.43;;;4.82;;
54269;SDS011;40181;51.560;13.000;2023-06-10T09:18:26;5.70;;;3.85;;
54269;SDS011;40181;51.560;13.000;2023-06-10T09:20:57;4.60;;;3.50;;
54269;SDS011;40181;51.560;13.000;2023-06-10T09:23:26;5.35;;;3.92;;
54269;SDS011;40181;51.560;13.000;2023-06-10T09:25:58;5.55;;;3.88;;
54269;SDS011;40181;51.560;13.000;2023-06-10T09:28:30;5.90;;;3.72;;
54269;SDS011;40181;51.560;13.000;2023-06-10T09:31:05;4.50;;;3.55;;
54269;SDS011;40181;51.560;13.000;2023-06-10T09:33:36;5.13;;;2.95;;
54269;SDS011;40181;51.560;13.000;2023-06-10T09:36:06;5.10;;;4.13;;
54269;SDS011;40181;51.560;13.000;2023-06-10T09:38:36;6.57;;;3.63;;
54269;SDS011;40181;51.560;13.000;2023-06-10T09:41:05;5.00;;;3.28;;
54269;SDS011;40181;51.560;13.000;2023-06-10T09:43:41;7.68;;;4.28;;
54269;SDS011;40181;51.560;13.000;2023-06-10T09:46:17;6.68;;;4.30;;
54269;SDS011;40181;51.560;13.000;2023-06-10T09:48:47;7.15;;;4.22;;
54269;SDS011;40181;51.560;13.000;2023-06-10T09:51:16;3.50;;;3.00;;
54269;SDS011;40181;51.560;13.000;2023-06-10T09:53:50;3.55;;;2.97;;
54269;SDS011;40181;51.560;13.000;2023-06-10T09:56:32;5.22;;;3.58;;
54269;SDS011;40181;51.560;13.000;2023-06-10T09:59:03;3.15;;;2.72;;
54269;SDS011;40181;51.560;13.000;2023-06-10T10:01:35;4.05;;;2.67;;
54269;SDS011;40181;51.560;13.000;2023-06-10T10:04:04;3.97;;;3.25;;
54269;SDS011;40181;51.560;13.000;2023-06-10T10:06:35;5.63;;;3.83;;
54269;SDS011;40181;51.560;13.000;2023-06-10T10:09:05;4.47;;;3.00;;
54269;SDS011;40181;51.560;13.000;2023-06-10T10:11:34;6.95;;;3.25;;
54269;SDS011;40181;51.560;13.000;2023-06-10T10:16:39;3.10;;;2.72;;
54269;SDS011;40181;51.560;13.000;2023-06-10T10:19:10;5.50;;;3.65;;
54269;SDS011;40181;51.560;13.000;2023-06-10T10:21:44;5.00;;;3.72;;
54269;SDS011;40181;51.560;13.000;2023-06-10T10:24:22;5.35;;;4.07;;
54269;SDS011;40181;51.560;13.000;2023-06-10T10:26:58;6.13;;;3.83;;
54269;SDS011;40181;51.560;13.000;2023-06-10T10:29:31;5.50;;;3.75;;
54269;SDS011;40181;51.560;13.000;2023-06-10T10:32:10;3.95;;;2.95;;
54269;SDS011;40181;51.560;13.000;2023-06-10T10:34:43;6.00;;;3.45;;
54269;SDS011;40181;51.560;13.000;2023-06-10T10:37:21;4.30;;;3.50;;
54269;SDS011;40181;51.560;13.000;2023-06-10T10:39:50;3.50;;;2.75;;
54269;SDS011;40181;51.560;13.000;2023-06-10T10:42:20;4.20;;;3.22;;
54269;SDS011;40181;51.560;13.000;2023-06-10T10:44:49;5.32;;;3.15;;
54269;SDS011;40181;51.560;13.000;2023-06-10T10:47:22;4.88;;;2.85;;
54269;SDS011;40181;51.560;13.000;2023-06-10T10:49:57;5.22;;;3.30;;
54269;SDS011;40181;51.560;13.000;2023-06-10T10:52:28;4.47;;;3.42;;
54269;SDS011;40181;51.560;13.000;2023-06-10T10:55:23;5.78;;;3.35;;
54269;SDS011;40181;51.560;13.000;2023-06-10T10:57:53;3.47;;;2.63;;
54269;SDS011;40181;51.560;13.000;2023-06-10T11:00:24;3.78;;;2.30;;
54269;SDS011;40181;51.560;13.000;2023-06-10T11:03:04;5.15;;;3.17;;
54269;SDS011;40181;51.560;13.000;2023-06-10T11:05:39;5.22;;;3.22;;
54269;SDS011;40181;51.560;13.000;2023-06-10T11:08:13;4.82;;;3.10;;
54269;SDS011;40181;51.560;13.000;2023-06-10T11:10:50;4.65;;;2.63;;
54269;SDS011;40181;51.560;13.000;2023-06-10T11:13:20;3.53;;;2.53;;
54269;SDS011;40181;51.560;13.000;2023-06-10T11:15:50;3.55;;;2.92;;
54269;SDS011;40181;51.560;13.000;2023-06-10T11:18:23;4.53;;;2.83;;
54269;SDS011;40181;51.560;13.000;2023-06-10T11:20:59;4.63;;;3.08;;
54269;SDS011;40181;51.560;13.000;2023-06-10T11:23:40;4.75;;;2.75;;
54269;SDS011;40181;51.560;13.000;2023-06-10T11:26:11;3.50;;;2.47;;
54269;SDS011;40181;51.560;13.000;2023-06-10T11:31:41;2.75;;;2.03;;
54269;SDS011;40181;51.560;13.000;2023-06-10T11:34:20;3.88;;;2.60;;
54269;SDS011;40181;51.560;13.000;2023-06-10T11:36:52;4.80;;;2.40;;
54269;SDS011;40181;51.560;13.000;2023-06-10T11:39:23;9.07;;;2.45;;
54269;SDS011;40181;51.560;13.000;2023-06-10T11:41:52;7.43;;;3.00;;
54269;SDS011;40181;51.560;13.000;2023-06-10T11:44:22;5.32;;;3.58;;
54269;SDS011;40181;51.560;13.000;2023-06-10T11:46:59;5.22;;;3.22;;
54269;SDS011;40181;51.560;13.000;2023-06-10T11:49:31;5.65;;;3.60;;
54269;SDS011;40181;51.560;13.000;2023-06-10T11:52:00;4.25;;;2.88;;
54269;SDS011;40181;51.560;13.000;2023-06-10T11:54:31;4.05;;;2.40;;
54269;SDS011;40181;51.560;13.000;2023-06-10T11:57:01;4.75;;;2.90;;
54269;SDS011;40181;51.560;13.000;2023-06-10T11:59:33;7.72;;;3.45;;
54269;SDS011;40181;51.560;13.000;2023-06-10T12:02:03;4.88;;;3.33;;
54269;SDS011;40181;51.560;13.000;2023-06-10T12:04:35;11.68;;;3.35;;
54269;SDS011;40181;51.560;13.000;2023-06-10T12:07:04;3.13;;;2.50;;
54269;SDS011;40181;51.560;13.000;2023-06-10T12:09:33;13.10;;;3.47;;
54269;SDS011;40181;51.560;13.000;2023-06-10T12:12:03;5.85;;;3.83;;
54269;SDS011;40181;51.560;13.000;2023-06-10T12:14:53;5.28;;;3.10;;
54269;SDS011;40181;51.560;13.000;2023-06-10T12:17:34;4.70;;;2.63;;
54269;SDS011;40181;51.560;13.000;2023-06-10T12:20:08;5.85;;;2.95;;
54269;SDS011;40181;51.560;13.000;2023-06-10T12:22:52;5.72;;;2.97;;
54269;SDS011;40181;51.560;13.000;2023-06-10T12:25:24;3.80;;;3.10;;
54269;SDS011;40181;51.560;13.000;2023-06-10T12:27:55;4.50;;;3.00;;
54269;SDS011;40181;51.560;13.000;2023-06-10T12:30:26;3.88;;;2.30;;
54269;SDS011;40181;51.560;13.000;2023-06-10T12:32:56;3.97;;;2.83;;
54269;SDS011;40181;51.560;13.000;2023-06-10T12:35:28;2.67;;;2.10;;
54269;SDS011;40181;51.560;13.000;2023-06-10T12:37:58;3.58;;;2.67;;
54269;SDS011;40181;51.560;13.000;2023-06-10T12:40:30;5.15;;;3.20;;
54269;SDS011;40181;51.560;13.000;2023-06-10T12:43:01;4.07;;;2.67;;
54269;SDS011;40181;51.560;13.000;2023-06-10T12:45:31;4.82;;;2.97;;
54269;SDS011;40181;51.560;13.000;2023-06-10T12:48:04;3.88;;;2.55;;
54269;SDS011;40181;51.560;13.000;2023-06-10T12:50:38;32.22;;;3.03;;
54269;SDS011;40181;51.560;13.000;2023-06-10T12:53:11;2.92;;;2.30;;
54269;SDS011;40181;51.560;13.000;2023-06-10T12:58:10;2.95;;;2.05;;
54269;SDS011;40181;51.560;13.000;2023-06-10T13:00:39;3.83;;;2.47;;
54269;SDS011;40181;51.560;13.000;2023-06-10T13:03:10;5.22;;;2.72;;
54269;SDS011;40181;51.560;13.000;2023-06-10T13:05:42;9.70;;;1.90;;
54269;SDS011;40181;51.560;13.000;2023-06-10T13:08:11;6.65;;;1.77;;
54269;SDS011;40181;51.560;13.000;2023-06-10T13:10:40;3.58;;;2.25;;
54269;SDS011;40181;51.560;13.000;2023-06-10T13:13:09;3.70;;;2.67;;
54269;SDS011;40181;51.560;13.000;2023-06-10T13:15:39;3.83;;;2.88;;
54269;SDS011;40181;51.560;13.000;2023-06-10T13:18:09;4.05;;;2.45;;
54269;SDS011;40181;51.560;13.000;2023-06-10T13:20:38;4.97;;;2.72;;
54269;SDS011;40181;51.560;13.000;2023-06-10T13:23:09;2.75;;;1.92;;
54269;SDS011;40181;51.560;13.000;2023-06-10T13:25:39;2.43;;;2.03;;
54269;SDS011;40181;51.560;13.000;2023-06-10T13:28:09;3.97;;;3.00;;
54269;SDS011;40181;51.560;13.000;2023-06-10T13:30:39;3.60;;;2.80;;
54269;SDS011;40181;51.560;13.000;2023-06-10T13:33:08;3.25;;;2.55;;
54269;SDS011;40181;51.560;13.000;2023-06-10T13:35:37;6.60;;;3.13;;
54269;SDS011;40181;51.560;13.000;2023-06-10T13:38:08;10.18;;;2.63;;
54269;SDS011;40181;51.560;13.000;2023-06-10T13:40:38;4.35;;;2.92;;
54269;SDS011;40181;51.560;13.000;2023-06-10T13:43:08;5.47;;;3.08;;
54269;SDS011;40181;51.560;13.000;2023-06-10T13:48:07;3.30;;;2.35;;
54269;SDS011;40181;51.560;13.000;2023-06-10T13:50:37;3.85;;;2.58;;
54269;SDS011;40181;51.560;13.000;2023-06-10T13:53:13;4.10;;;2.95;;
54269;SDS011;40181;51.560;13.000;2023-06-10T13:55:42;4.40;;;2.97;;
54269;SDS011;40181;51.560;13.000;2023-06-10T13:58:11;4.57;;;2.63;;
54269;SDS011;40181;51.560;13.000;2023-06-10T14:00:40;6.78;;;2.25;;
54269;SDS011;40181;51.560;13.000;2023-06-10T14:03:09;3.67;;;2.45;;
54269;SDS011;40181;51.560;13.000;2023-06-10T14:05:38;3.75;;;2.00;;
54269;SDS011;40181;51.560;13.000;2023-06-10T14:08:07;3.47;;;2.47;;
54269;SDS011;40181;51.560;13.000;2023-06-10T14:10:39;4.65;;;1.98;;
54269;SDS011;40181;51.560;13.000;2023-06-10T14:13:08;5.13;;;2.63;;
54269;SDS011;40181;51.560;13.000;2023-06-10T14:15:38;3.80;;;2.33;;
54269;SDS011;40181;51.560;13.000;2023-06-10T14:18:07;3.50;;;2.45;;
54269;SDS011;40181;51.560;13.000;2023-06-10T14:20:36;4.30;;;2.88;;
54269;SDS011;40181;51.560;13.000;2023-06-10T14:23:05;2.88;;;1.98;;
54269;SDS011;40181;51.560;13.000;2023-06-10T14:25:34;3.88;;;2.45;;
54269;SDS011;40181;51.560;13.000;2023-06-10T14:28:06;2.90;;;2.20;;
54269;SDS011;40181;51.560;13.000;2023-06-10T14:30:35;11.52;;;3.50;;
54269;SDS011;40181;51.560;13.000;2023-06-10T14:33:04;4.63;;;2.42;;
54269;SDS011;40181;51.560;13.000;2023-06-10T14:35:33;7.55;;;3.05;;
54269;SDS011;40181;51.560;13.000;2023-06-10T14:38:02;3.63;;;2.00;;
54269;SDS011;40181;51.560;13.000;2023-06-10T14:40:31;5.13;;;2.67;;
54269;SDS011;40181;51.560;13.000;2023-06-10T14:43:01;4.13;;;2.35;;
54269;SDS011;40181;51.560;13.000;2023-06-10T14:45:37;2.15;;;1.60;;
54269;SDS011;40181;51.560;13.000;2023-06-10T14:48:07;4.63;;;2.70;;
54269;SDS011;40181;51.560;13.000;2023-06-10T14:50:37;4.32;;;2.55;;
54269;SDS011;40181;51.560;13.000;2023-06-10T14:53:10;3.90;;;2.50;;
54269;SDS011;40181;51.560;13.000;2023-06-10T14:55:39;5.20;;;2.90;;
54269;SDS011;40181;51.560;13.000;2023-06-10T14:58:08;3.63;;;2.10;;
54269;SDS011;40181;51.560;13.000;2023-06-10T15:00:40;4.25;;;2.03;;
54269;SDS011;40181;51.560;13.000;2023-06-10T15:03:09;5.18;;;2.50;;
54269;SDS011;40181;51.560;13.000;2023-06-10T15:05:38;2.83;;;2.00;;
54269;SDS011;40181;51.560;13.000;2023-06-10T15:08:07;2.17;;;1.77;;
54269;SDS011;40181;51.560;13.000;2023-06-10T15:10:37;3.13;;;2.00;;